Rugby, North Dakota
Current Conditions -  °F | °C
As of 11:35 AM on Friday 31 Oct 2014 (Local Time) from KRUG Reporting Station
Clear Clear  
Wind Chill: -8°   Ceiling: Unl
Heat Index: -2°   Visibility: 10mi
Dew Point: -7°   Wind: 15mph
Humidity: 69%   Direction: 170°S
Pressure: 30.45"   Gusts: 22mph
Location:  48.37°N, 100°W
Report Text: KRUG 311635Z AUTO 17013G19KT 10SM CLR M02/M07 A3045 RMK AO2
Loading
Personal Weather Stations






























Interactive Weather Map
Tropical Storm Tracking
New forecast layout! Learn more

10-Day Weather Forecast

Advertisements
Track Severe Weather on mobile